sensor_id;sensor_type;location;lat;lon;timestamp;temperature;humidity
1277;DHT22;631;51.024;13.826;2023-02-28T00:01:26;1.20;99.90
1277;DHT22;631;51.024;13.826;2023-02-28T00:03:52;1.20;99.90
1277;DHT22;631;51.024;13.826;2023-02-28T00:06:17;1.20;99.90
1277;DHT22;631;51.024;13.826;2023-02-28T00:08:43;1.20;99.90
1277;DHT22;631;51.024;13.826;2023-02-28T00:11:11;1.20;99.90
1277;DHT22;631;51.024;13.826;2023-02-28T00:13:40;1.20;99.90
1277;DHT22;631;51.024;13.826;2023-02-28T00:16:08;1.10;99.90
1277;DHT22;631;51.024;13.826;2023-02-28T00:18:34;1.20;99.90
1277;DHT22;631;51.024;13.826;2023-02-28T00:21:00;1.20;99.90
1277;DHT22;631;51.024;13.826;2023-02-28T00:23:26;1.20;99.90
1277;DHT22;631;51.024;13.826;2023-02-28T00:25:52;1.10;99.90
1277;DHT22;631;51.024;13.826;2023-02-28T00:28:18;1.10;99.90
1277;DHT22;631;51.024;13.826;2023-02-28T00:30:44;1.10;99.90
1277;DHT22;631;51.024;13.826;2023-02-28T00:33:10;1.10;99.90
1277;DHT22;631;51.024;13.826;2023-02-28T00:35:35;1.10;99.90
1277;DHT22;631;51.024;13.826;2023-02-28T00:38:01;1.00;99.90
1277;DHT22;631;51.024;13.826;2023-02-28T00:40:27;1.10;99.90
1277;DHT22;631;51.024;13.826;2023-02-28T00:42:52;1.10;99.90
1277;DHT22;631;51.024;13.826;2023-02-28T00:45:18;1.00;99.90
1277;DHT22;631;51.024;13.826;2023-02-28T00:47:44;1.00;99.90
1277;DHT22;631;51.024;13.826;2023-02-28T00:50:12;1.10;99.90
1277;DHT22;631;51.024;13.826;2023-02-28T00:52:37;1.00;99.90
1277;DHT22;631;51.024;13.826;2023-02-28T00:55:03;1.00;99.90
1277;DHT22;631;51.024;13.826;2023-02-28T00:57:29;1.00;99.90
1277;DHT22;631;51.024;13.826;2023-02-28T00:59:55;1.00;99.90
1277;DHT22;631;51.024;13.826;2023-02-28T01:02:22;1.00;99.90
1277;DHT22;631;51.024;13.826;2023-02-28T01:04:48;1.00;99.90
1277;DHT22;631;51.024;13.826;2023-02-28T01:07:13;0.90;99.90
1277;DHT22;631;51.024;13.826;2023-02-28T01:09:40;0.90;99.90
1277;DHT22;631;51.024;13.826;2023-02-28T01:12:07;0.90;99.90
1277;DHT22;631;51.024;13.826;2023-02-28T01:14:33;0.80;99.90
1277;DHT22;631;51.024;13.826;2023-02-28T01:17:00;0.80;99.90
1277;DHT22;631;51.024;13.826;2023-02-28T01:19:25;0.90;99.90
1277;DHT22;631;51.024;13.826;2023-02-28T01:21:51;0.90;99.90
1277;DHT22;631;51.024;13.826;2023-02-28T01:24:17;0.90;99.90
1277;DHT22;631;51.024;13.826;2023-02-28T01:26:42;0.90;99.90
1277;DHT22;631;51.024;13.826;2023-02-28T01:29:08;0.90;99.90
1277;DHT22;631;51.024;13.826;2023-02-28T01:31:33;0.90;99.90
1277;DHT22;631;51.024;13.826;2023-02-28T01:33:59;0.80;99.90
1277;DHT22;631;51.024;13.826;2023-02-28T01:36:25;0.80;99.90
1277;DHT22;631;51.024;13.826;2023-02-28T01:38:51;0.80;99.90
1277;DHT22;631;51.024;13.826;2023-02-28T01:41:28;0.80;99.90
1277;DHT22;631;51.024;13.826;2023-02-28T01:43:58;0.80;99.90
1277;DHT22;631;51.024;13.826;2023-02-28T01:46:24;0.70;99.90
1277;DHT22;631;51.024;13.826;2023-02-28T01:49:12;0.70;99.90
1277;DHT22;631;51.024;13.826;2023-02-28T01:51:48;0.70;99.90
1277;DHT22;631;51.024;13.826;2023-02-28T01:54:22;0.70;99.90
1277;DHT22;631;51.024;13.826;2023-02-28T01:56:57;0.70;99.90
1277;DHT22;631;51.024;13.826;2023-02-28T01:59:40;0.60;99.90
1277;DHT22;631;51.024;13.826;2023-02-28T02:02:12;0.60;99.90
1277;DHT22;631;51.024;13.826;2023-02-28T02:04:45;0.50;99.90
1277;DHT22;631;51.024;13.826;2023-02-28T02:07:12;0.50;99.90
1277;DHT22;631;51.024;13.826;2023-02-28T02:09:39;0.50;99.90
1277;DHT22;631;51.024;13.826;2023-02-28T02:15:00;0.50;99.90
1277;DHT22;631;51.024;13.826;2023-02-28T02:17:41;0.50;99.90
1277;DHT22;631;51.024;13.826;2023-02-28T02:37:13;0.50;99.90
1277;DHT22;631;51.024;13.826;2023-02-28T02:39:47;0.50;99.90
1277;DHT22;631;51.024;13.826;2023-02-28T02:42:21;0.50;99.90
1277;DHT22;631;51.024;13.826;2023-02-28T02:44:58;0.50;99.90
1277;DHT22;631;51.024;13.826;2023-02-28T02:47:28;0.50;99.90
1277;DHT22;631;51.024;13.826;2023-02-28T02:49:57;0.50;99.90
1277;DHT22;631;51.024;13.826;2023-02-28T02:52:33;0.50;99.90
1277;DHT22;631;51.024;13.826;2023-02-28T02:55:00;0.50;99.90
1277;DHT22;631;51.024;13.826;2023-02-28T02:57:36;0.50;99.90
1277;DHT22;631;51.024;13.826;2023-02-28T03:00:05;0.50;99.90
1277;DHT22;631;51.024;13.826;2023-02-28T03:02:35;0.40;99.90
1277;DHT22;631;51.024;13.826;2023-02-28T03:05:12;0.40;99.90
1277;DHT22;631;51.024;13.826;2023-02-28T03:07:39;0.40;99.90
1277;DHT22;631;51.024;13.826;2023-02-28T03:10:33;0.40;99.90
1277;DHT22;631;51.024;13.826;2023-02-28T03:24:47;0.20;99.90
1277;DHT22;631;51.024;13.826;2023-02-28T03:30:14;0.20;99.90
1277;DHT22;631;51.024;13.826;2023-02-28T03:32:55;0.10;99.90
1277;DHT22;631;51.024;13.826;2023-02-28T03:35:25;0.00;99.90
1277;DHT22;631;51.024;13.826;2023-02-28T03:38:03;0.00;99.90
1277;DHT22;631;51.024;13.826;2023-02-28T03:40:33;-0.10;99.90
1277;DHT22;631;51.024;13.826;2023-02-28T03:43:06;-0.10;99.90
1277;DHT22;631;51.024;13.826;2023-02-28T03:45:36;-0.20;99.90
1277;DHT22;631;51.024;13.826;2023-02-28T03:48:07;-0.30;99.90
1277;DHT22;631;51.024;13.826;2023-02-28T03:50:40;-0.40;99.90
1277;DHT22;631;51.024;13.826;2023-02-28T03:55:44;-0.50;99.90
1277;DHT22;631;51.024;13.826;2023-02-28T04:01:08;-0.70;99.90
1277;DHT22;631;51.024;13.826;2023-02-28T04:03:38;-0.80;99.90
1277;DHT22;631;51.024;13.826;2023-02-28T04:06:07;-0.80;99.90
1277;DHT22;631;51.024;13.826;2023-02-28T04:08:33;-0.90;99.90
1277;DHT22;631;51.024;13.826;2023-02-28T04:11:19;-1.00;99.90
1277;DHT22;631;51.024;13.826;2023-02-28T04:13:45;-1.00;99.90
1277;DHT22;631;51.024;13.826;2023-02-28T04:16:10;-1.10;99.90
1277;DHT22;631;51.024;13.826;2023-02-28T04:18:41;-1.20;99.90
1277;DHT22;631;51.024;13.826;2023-02-28T04:21:09;-1.30;99.90
1277;DHT22;631;51.024;13.826;2023-02-28T04:23:35;-1.30;99.90
1277;DHT22;631;51.024;13.826;2023-02-28T04:26:01;-1.40;99.90
1277;DHT22;631;51.024;13.826;2023-02-28T04:28:26;-1.40;99.90
1277;DHT22;631;51.024;13.826;2023-02-28T04:31:03;-1.50;99.90
1277;DHT22;631;51.024;13.826;2023-02-28T04:33:31;-1.50;99.90
1277;DHT22;631;51.024;13.826;2023-02-28T04:36:04;-1.50;99.90
1277;DHT22;631;51.024;13.826;2023-02-28T04:38:33;-1.60;99.90
1277;DHT22;631;51.024;13.826;2023-02-28T04:41:00;-1.60;99.90
1277;DHT22;631;51.024;13.826;2023-02-28T04:43:26;-1.70;99.90
1277;DHT22;631;51.024;13.826;2023-02-28T04:45:53;-1.70;99.90
1277;DHT22;631;51.024;13.826;2023-02-28T04:48:23;-1.70;99.90
1277;DHT22;631;51.024;13.826;2023-02-28T04:50:49;-1.70;99.90
1277;DHT22;631;51.024;13.826;2023-02-28T04:53:14;-1.80;99.90
1277;DHT22;631;51.024;13.826;2023-02-28T04:55:40;-1.80;99.90
1277;DHT22;631;51.024;13.826;2023-02-28T04:58:06;-1.80;99.90
1277;DHT22;631;51.024;13.826;2023-02-28T05:00:31;-1.90;99.90
1277;DHT22;631;51.024;13.826;2023-02-28T05:02:57;-1.90;99.90
1277;DHT22;631;51.024;13.826;2023-02-28T05:05:22;-2.00;99.90
1277;DHT22;631;51.024;13.826;2023-02-28T05:07:48;-1.90;99.90
1277;DHT22;631;51.024;13.826;2023-02-28T05:10:13;-2.00;99.90
1277;DHT22;631;51.024;13.826;2023-02-28T05:12:39;-2.10;99.90
1277;DHT22;631;51.024;13.826;2023-02-28T05:15:05;-2.10;99.90
1277;DHT22;631;51.024;13.826;2023-02-28T05:17:31;-2.10;99.90
1277;DHT22;631;51.024;13.826;2023-02-28T05:19:57;-2.10;99.90
1277;DHT22;631;51.024;13.826;2023-02-28T05:22:22;-2.20;99.90
1277;DHT22;631;51.024;13.826;2023-02-28T05:24:48;-2.10;99.90
1277;DHT22;631;51.024;13.826;2023-02-28T05:27:13;-2.10;99.90
1277;DHT22;631;51.024;13.826;2023-02-28T05:29:39;-2.10;99.90
1277;DHT22;631;51.024;13.826;2023-02-28T05:32:11;-2.10;99.90
1277;DHT22;631;51.024;13.826;2023-02-28T05:34:40;-2.10;99.90
1277;DHT22;631;51.024;13.826;2023-02-28T05:37:10;-2.10;99.90
1277;DHT22;631;51.024;13.826;2023-02-28T05:39:36;-2.20;99.90
1277;DHT22;631;51.024;13.826;2023-02-28T05:42:02;-2.20;99.90
1277;DHT22;631;51.024;13.826;2023-02-28T05:44:28;-2.20;99.90
1277;DHT22;631;51.024;13.826;2023-02-28T05:46:54;-2.20;99.90
1277;DHT22;631;51.024;13.826;2023-02-28T05:49:19;-2.20;99.90
1277;DHT22;631;51.024;13.826;2023-02-28T05:51:45;-2.20;99.90
1277;DHT22;631;51.024;13.826;2023-02-28T05:54:10;-2.30;99.90
1277;DHT22;631;51.024;13.826;2023-02-28T05:56:36;-2.30;99.90
1277;DHT22;631;51.024;13.826;2023-02-28T05:59:05;-2.30;99.90
1277;DHT22;631;51.024;13.826;2023-02-28T06:01:37;-2.40;99.90
1277;DHT22;631;51.024;13.826;2023-02-28T06:04:04;-2.40;99.90
1277;DHT22;631;51.024;13.826;2023-02-28T06:06:30;-2.50;99.90
1277;DHT22;631;51.024;13.826;2023-02-28T06:08:56;-2.50;99.90
1277;DHT22;631;51.024;13.826;2023-02-28T06:11:22;-2.50;99.90
1277;DHT22;631;51.024;13.826;2023-02-28T06:13:54;-2.50;99.90
1277;DHT22;631;51.024;13.826;2023-02-28T06:16:21;-2.50;99.90
1277;DHT22;631;51.024;13.826;2023-02-28T06:18:46;-2.50;99.90
1277;DHT22;631;51.024;13.826;2023-02-28T06:21:12;-2.50;99.90
1277;DHT22;631;51.024;13.826;2023-02-28T06:23:41;-2.50;99.90
1277;DHT22;631;51.024;13.826;2023-02-28T06:26:07;-2.50;99.90
1277;DHT22;631;51.024;13.826;2023-02-28T06:28:32;-2.50;99.90
1277;DHT22;631;51.024;13.826;2023-02-28T06:30:58;-2.50;99.90
1277;DHT22;631;51.024;13.826;2023-02-28T06:33:24;-2.50;99.90
1277;DHT22;631;51.024;13.826;2023-02-28T06:35:51;-2.50;99.90
1277;DHT22;631;51.024;13.826;2023-02-28T06:38:16;-2.40;99.90
1277;DHT22;631;51.024;13.826;2023-02-28T06:40:43;-2.40;99.90
1277;DHT22;631;51.024;13.826;2023-02-28T06:43:09;-2.40;99.90
1277;DHT22;631;51.024;13.826;2023-02-28T06:45:41;-2.40;99.90
1277;DHT22;631;51.024;13.826;2023-02-28T06:48:07;-2.30;99.90
1277;DHT22;631;51.024;13.826;2023-02-28T06:50:33;-2.30;99.90
1277;DHT22;631;51.024;13.826;2023-02-28T06:52:58;-2.20;99.90
1277;DHT22;631;51.024;13.826;2023-02-28T06:55:24;-2.10;99.90
1277;DHT22;631;51.024;13.826;2023-02-28T06:57:49;-2.00;99.90
1277;DHT22;631;51.024;13.826;2023-02-28T07:00:16;-1.90;99.90
1277;DHT22;631;51.024;13.826;2023-02-28T07:02:41;-1.70;99.90
1277;DHT22;631;51.024;13.826;2023-02-28T07:05:07;-1.60;99.90
1277;DHT22;631;51.024;13.826;2023-02-28T07:07:33;-1.40;99.90
1277;DHT22;631;51.024;13.826;2023-02-28T07:10:01;-1.20;99.90
1277;DHT22;631;51.024;13.826;2023-02-28T07:12:27;-1.10;99.90
1277;DHT22;631;51.024;13.826;2023-02-28T07:14:52;-0.90;99.90
1277;DHT22;631;51.024;13.826;2023-02-28T07:17:19;-0.80;99.90
1277;DHT22;631;51.024;13.826;2023-02-28T07:19:58;-0.60;99.90
1277;DHT22;631;51.024;13.826;2023-02-28T07:22:24;-0.50;99.90
1277;DHT22;631;51.024;13.826;2023-02-28T07:24:50;-0.60;99.90
1277;DHT22;631;51.024;13.826;2023-02-28T07:27:15;-0.70;99.90
1277;DHT22;631;51.024;13.826;2023-02-28T07:29:49;-0.70;99.90
1277;DHT22;631;51.024;13.826;2023-02-28T07:32:15;-0.60;99.90
1277;DHT22;631;51.024;13.826;2023-02-28T07:34:41;-0.50;99.90
1277;DHT22;631;51.024;13.826;2023-02-28T07:37:06;-0.50;99.90
1277;DHT22;631;51.024;13.826;2023-02-28T07:39:32;-0.60;99.90
1277;DHT22;631;51.024;13.826;2023-02-28T07:41:57;-0.60;99.90
1277;DHT22;631;51.024;13.826;2023-02-28T07:44:25;-0.60;99.90
1277;DHT22;631;51.024;13.826;2023-02-28T07:46:51;-0.60;99.90
1277;DHT22;631;51.024;13.826;2023-02-28T07:49:16;-0.50;99.90
1277;DHT22;631;51.024;13.826;2023-02-28T07:51:42;-0.40;99.90
1277;DHT22;631;51.024;13.826;2023-02-28T07:54:07;-0.40;99.90
1277;DHT22;631;51.024;13.826;2023-02-28T07:56:33;-0.30;99.90
1277;DHT22;631;51.024;13.826;2023-02-28T07:58:59;-0.10;99.90
1277;DHT22;631;51.024;13.826;2023-02-28T08:01:24;0.00;99.90
1277;DHT22;631;51.024;13.826;2023-02-28T08:03:50;0.10;99.90
1277;DHT22;631;51.024;13.826;2023-02-28T08:06:21;0.20;99.90
1277;DHT22;631;51.024;13.826;2023-02-28T08:08:47;0.30;99.90
1277;DHT22;631;51.024;13.826;2023-02-28T08:11:14;0.40;99.90
1277;DHT22;631;51.024;13.826;2023-02-28T08:13:40;0.70;99.90
1277;DHT22;631;51.024;13.826;2023-02-28T08:16:07;0.80;99.90
1277;DHT22;631;51.024;13.826;2023-02-28T08:18:33;0.90;99.90
1277;DHT22;631;51.024;13.826;2023-02-28T08:20:59;1.10;99.90
1277;DHT22;631;51.024;13.826;2023-02-28T08:23:25;1.50;99.90
1277;DHT22;631;51.024;13.826;2023-02-28T08:25:55;1.80;99.90
1277;DHT22;631;51.024;13.826;2023-02-28T08:28:21;2.10;99.90
1277;DHT22;631;51.024;13.826;2023-02-28T08:30:47;2.40;99.90
1277;DHT22;631;51.024;13.826;2023-02-28T08:33:12;2.70;99.90
1277;DHT22;631;51.024;13.826;2023-02-28T08:35:38;2.80;99.90
1277;DHT22;631;51.024;13.826;2023-02-28T08:38:03;2.60;99.90
1277;DHT22;631;51.024;13.826;2023-02-28T08:40:29;2.70;99.90
1277;DHT22;631;51.024;13.826;2023-02-28T08:42:55;2.80;99.90
1277;DHT22;631;51.024;13.826;2023-02-28T08:45:20;3.10;99.90
1277;DHT22;631;51.024;13.826;2023-02-28T08:47:46;3.10;99.90
1277;DHT22;631;51.024;13.826;2023-02-28T08:50:11;3.20;99.90
1277;DHT22;631;51.024;13.826;2023-02-28T08:52:42;3.40;99.90
1277;DHT22;631;51.024;13.826;2023-02-28T08:55:08;3.50;99.90
1277;DHT22;631;51.024;13.826;2023-02-28T08:57:34;3.60;99.90
1277;DHT22;631;51.024;13.826;2023-02-28T09:00:00;4.10;99.90
1277;DHT22;631;51.024;13.826;2023-02-28T09:02:32;4.30;99.90
1277;DHT22;631;51.024;13.826;2023-02-28T09:04:58;4.80;99.10
1277;DHT22;631;51.024;13.826;2023-02-28T09:07:25;5.20;96.80
1277;DHT22;631;51.024;13.826;2023-02-28T09:09:50;5.60;96.00
1277;DHT22;631;51.024;13.826;2023-02-28T09:12:21;6.00;95.00
1277;DHT22;631;51.024;13.826;2023-02-28T09:14:46;6.50;93.30
1277;DHT22;631;51.024;13.826;2023-02-28T09:17:12;7.10;91.30
1277;DHT22;631;51.024;13.826;2023-02-28T09:19:37;7.50;87.70
1277;DHT22;631;51.024;13.826;2023-02-28T09:22:03;8.10;82.50
1277;DHT22;631;51.024;13.826;2023-02-28T09:24:29;8.30;70.50
1277;DHT22;631;51.024;13.826;2023-02-28T09:26:56;8.70;71.60
1277;DHT22;631;51.024;13.826;2023-02-28T09:29:22;9.10;67.40
1277;DHT22;631;51.024;13.826;2023-02-28T09:31:48;9.50;65.90
1277;DHT22;631;51.024;13.826;2023-02-28T09:34:13;10.20;61.30
1277;DHT22;631;51.024;13.826;2023-02-28T09:36:39;10.20;57.70
1277;DHT22;631;51.024;13.826;2023-02-28T09:39:05;10.10;55.80
1277;DHT22;631;51.024;13.826;2023-02-28T09:41:43;9.80;52.60
1277;DHT22;631;51.024;13.826;2023-02-28T09:50:35;10.80;49.10
1277;DHT22;631;51.024;13.826;2023-02-28T09:53:26;10.90;45.90
1277;DHT22;631;51.024;13.826;2023-02-28T09:56:04;11.70;46.50
1277;DHT22;631;51.024;13.826;2023-02-28T09:58:49;11.60;43.00
1277;DHT22;631;51.024;13.826;2023-02-28T10:01:32;10.80;42.60
1277;DHT22;631;51.024;13.826;2023-02-28T10:06:48;11.60;43.70
1277;DHT22;631;51.024;13.826;2023-02-28T10:09:21;11.70;44.60
1277;DHT22;631;51.024;13.826;2023-02-28T10:11:52;11.90;41.40
1277;DHT22;631;51.024;13.826;2023-02-28T10:14:28;11.80;42.90
1277;DHT22;631;51.024;13.826;2023-02-28T10:16:58;12.50;41.10
1277;DHT22;631;51.024;13.826;2023-02-28T10:19:40;13.30;40.40
1277;DHT22;631;51.024;13.826;2023-02-28T10:22:50;13.30;40.10
1277;DHT22;631;51.024;13.826;2023-02-28T10:25:26;12.20;38.30
1277;DHT22;631;51.024;13.826;2023-02-28T10:28:13;12.20;38.40
1277;DHT22;631;51.024;13.826;2023-02-28T10:30:59;11.90;37.60
1277;DHT22;631;51.024;13.826;2023-02-28T10:33:35;12.70;41.10
1277;DHT22;631;51.024;13.826;2023-02-28T10:36:03;13.60;40.90
1277;DHT22;631;51.024;13.826;2023-02-28T10:38:34;14.10;37.70
1277;DHT22;631;51.024;13.826;2023-02-28T10:41:10;14.60;35.70
1277;DHT22;631;51.024;13.826;2023-02-28T10:43:38;15.30;36.40
1277;DHT22;631;51.024;13.826;2023-02-28T10:46:13;15.70;35.10
1277;DHT22;631;51.024;13.826;2023-02-28T10:48:57;16.00;34.40
1277;DHT22;631;51.024;13.826;2023-02-28T10:51:24;15.50;30.20
1277;DHT22;631;51.024;13.826;2023-02-28T10:53:54;15.50;31.30
1277;DHT22;631;51.024;13.826;2023-02-28T10:56:24;14.30;30.10
1277;DHT22;631;51.024;13.826;2023-02-28T11:01:39;13.70;34.10
1277;DHT22;631;51.024;13.826;2023-02-28T11:07:17;14.60;33.10
1277;DHT22;631;51.024;13.826;2023-02-28T11:09:52;14.90;32.30
1277;DHT22;631;51.024;13.826;2023-02-28T11:12:38;15.10;29.50
1277;DHT22;631;51.024;13.826;2023-02-28T11:15:27;15.20;30.20
1277;DHT22;631;51.024;13.826;2023-02-28T11:20:48;15.70;30.00
1277;DHT22;631;51.024;13.826;2023-02-28T11:23:16;15.90;29.60
1277;DHT22;631;51.024;13.826;2023-02-28T11:25:48;15.90;29.90
1277;DHT22;631;51.024;13.826;2023-02-28T11:33:41;15.60;31.20
1277;DHT22;631;51.024;13.826;2023-02-28T11:36:28;15.20;28.10
1277;DHT22;631;51.024;13.826;2023-02-28T11:38:56;14.50;29.20
1277;DHT22;631;51.024;13.826;2023-02-28T11:44:25;14.00;30.40
1277;DHT22;631;51.024;13.826;2023-02-28T11:47:00;14.10;31.10
1277;DHT22;631;51.024;13.826;2023-02-28T11:52:22;14.30;29.30
1277;DHT22;631;51.024;13.826;2023-02-28T12:09:10;14.70;30.20
1277;DHT22;631;51.024;13.826;2023-02-28T12:18:30;16.10;28.90
1277;DHT22;631;51.024;13.826;2023-02-28T12:23:21;15.70;28.40
1277;DHT22;631;51.024;13.826;2023-02-28T12:26:11;15.80;27.50
1277;DHT22;631;51.024;13.826;2023-02-28T12:28:53;15.80;28.90
1277;DHT22;631;51.024;13.826;2023-02-28T12:31:33;15.80;27.70
1277;DHT22;631;51.024;13.826;2023-02-28T12:34:04;15.80;27.80
1277;DHT22;631;51.024;13.826;2023-02-28T12:36:32;16.10;27.30
1277;DHT22;631;51.024;13.826;2023-02-28T12:39:26;16.10;26.60
1277;DHT22;631;51.024;13.826;2023-02-28T12:41:59;16.10;27.70
1277;DHT22;631;51.024;13.826;2023-02-28T12:46:56;15.60;28.40
1277;DHT22;631;51.024;13.826;2023-02-28T12:49:31;15.20;28.00
1277;DHT22;631;51.024;13.826;2023-02-28T12:51:59;15.10;28.20
1277;DHT22;631;51.024;13.826;2023-02-28T12:54:51;15.00;26.90
1277;DHT22;631;51.024;13.826;2023-02-28T12:57:40;14.80;28.60
1277;DHT22;631;51.024;13.826;2023-02-28T13:00:14;14.30;29.00
1277;DHT22;631;51.024;13.826;2023-02-28T13:10:45;13.60;29.50
1277;DHT22;631;51.024;13.826;2023-02-28T13:13:23;13.70;30.80
1277;DHT22;631;51.024;13.826;2023-02-28T13:16:04;14.00;31.20
1277;DHT22;631;51.024;13.826;2023-02-28T13:18:39;14.20;29.70
1277;DHT22;631;51.024;13.826;2023-02-28T13:21:22;14.60;30.60
1277;DHT22;631;51.024;13.826;2023-02-28T13:26:21;14.50;29.40
1277;DHT22;631;51.024;13.826;2023-02-28T13:39:55;14.50;29.70
1277;DHT22;631;51.024;13.826;2023-02-28T13:47:43;14.70;29.20
1277;DHT22;631;51.024;13.826;2023-02-28T14:06:25;14.40;29.60
1277;DHT22;631;51.024;13.826;2023-02-28T14:11:40;13.90;30.00
1277;DHT22;631;51.024;13.826;2023-02-28T14:14:08;14.00;30.60
1277;DHT22;631;51.024;13.826;2023-02-28T14:16:47;13.90;30.70
1277;DHT22;631;51.024;13.826;2023-02-28T14:19:28;14.10;31.00
1277;DHT22;631;51.024;13.826;2023-02-28T14:25:36;13.70;29.50
1277;DHT22;631;51.024;13.826;2023-02-28T14:28:43;13.30;29.90
1277;DHT22;631;51.024;13.826;2023-02-28T14:31:17;13.10;29.50
1277;DHT22;631;51.024;13.826;2023-02-28T14:33:57;12.90;30.30
1277;DHT22;631;51.024;13.826;2023-02-28T14:36:58;12.90;31.40
1277;DHT22;631;51.024;13.826;2023-02-28T14:39:21;13.00;30.90
1277;DHT22;631;51.024;13.826;2023-02-28T14:41:47;12.80;30.60
1277;DHT22;631;51.024;13.826;2023-02-28T14:46:42;13.00;32.70
1277;DHT22;631;51.024;13.826;2023-02-28T14:49:27;13.20;31.60
1277;DHT22;631;51.024;13.826;2023-02-28T14:52:17;12.60;31.30
1277;DHT22;631;51.024;13.826;2023-02-28T14:54:44;12.50;31.50
1277;DHT22;631;51.024;13.826;2023-02-28T14:57:28;12.20;32.20
1277;DHT22;631;51.024;13.826;2023-02-28T15:00:09;11.70;33.10
1277;DHT22;631;51.024;13.826;2023-02-28T15:02:38;11.50;33.50
1277;DHT22;631;51.024;13.826;2023-02-28T15:07:35;11.10;34.80
1277;DHT22;631;51.024;13.826;2023-02-28T15:10:23;10.50;35.10
1277;DHT22;631;51.024;13.826;2023-02-28T15:12:58;9.90;35.70
1277;DHT22;631;51.024;13.826;2023-02-28T15:15:45;9.50;37.50
1277;DHT22;631;51.024;13.826;2023-02-28T15:18:28;9.40;39.30
1277;DHT22;631;51.024;13.826;2023-02-28T15:20:57;9.10;39.60
1277;DHT22;631;51.024;13.826;2023-02-28T15:23:23;9.00;39.80
1277;DHT22;631;51.024;13.826;2023-02-28T15:25:50;8.90;41.10
1277;DHT22;631;51.024;13.826;2023-02-28T15:28:20;8.80;41.30
1277;DHT22;631;51.024;13.826;2023-02-28T15:31:03;8.70;40.60
1277;DHT22;631;51.024;13.826;2023-02-28T15:33:58;8.50;41.60
1277;DHT22;631;51.024;13.826;2023-02-28T15:36:30;8.30;42.60
1277;DHT22;631;51.024;13.826;2023-02-28T15:38:57;8.20;43.10
1277;DHT22;631;51.024;13.826;2023-02-28T15:41:31;7.90;43.00
1277;DHT22;631;51.024;13.826;2023-02-28T15:47:03;7.50;43.70
1277;DHT22;631;51.024;13.826;2023-02-28T15:49:39;7.20;44.60
1277;DHT22;631;51.024;13.826;2023-02-28T15:52:05;6.90;46.70
1277;DHT22;631;51.024;13.826;2023-02-28T15:54:35;6.80;47.50
1277;DHT22;631;51.024;13.826;2023-02-28T16:00:04;6.40;47.20
1277;DHT22;631;51.024;13.826;2023-02-28T16:02:37;6.20;48.20
1277;DHT22;631;51.024;13.826;2023-02-28T16:07:36;5.70;50.30
1277;DHT22;631;51.024;13.826;2023-02-28T16:10:03;5.60;51.90
1277;DHT22;631;51.024;13.826;2023-02-28T16:12:31;5.40;52.00
1277;DHT22;631;51.024;13.826;2023-02-28T16:15:00;5.30;52.40
1277;DHT22;631;51.024;13.826;2023-02-28T16:17:31;5.10;52.10
1277;DHT22;631;51.024;13.826;2023-02-28T16:19:58;5.00;53.40
1277;DHT22;631;51.024;13.826;2023-02-28T16:22:24;4.90;54.80
1277;DHT22;631;51.024;13.826;2023-02-28T16:24:49;4.80;54.80
1277;DHT22;631;51.024;13.826;2023-02-28T16:27:20;4.70;55.70
1277;DHT22;631;51.024;13.826;2023-02-28T16:29:46;4.60;55.60
1277;DHT22;631;51.024;13.826;2023-02-28T16:32:14;4.50;56.00
1277;DHT22;631;51.024;13.826;2023-02-28T16:34:40;4.40;56.70
1277;DHT22;631;51.024;13.826;2023-02-28T16:37:16;4.30;57.60
1277;DHT22;631;51.024;13.826;2023-02-28T16:39:43;4.10;58.00
1277;DHT22;631;51.024;13.826;2023-02-28T16:42:19;4.00;57.80
1277;DHT22;631;51.024;13.826;2023-02-28T16:44:47;3.90;59.90
1277;DHT22;631;51.024;13.826;2023-02-28T16:47:12;3.70;59.40
1277;DHT22;631;51.024;13.826;2023-02-28T16:49:38;3.60;59.80
1277;DHT22;631;51.024;13.826;2023-02-28T16:52:07;3.50;61.50
1277;DHT22;631;51.024;13.826;2023-02-28T16:54:33;3.40;63.30
1277;DHT22;631;51.024;13.826;2023-02-28T16:56:59;3.30;65.60
1277;DHT22;631;51.024;13.826;2023-02-28T16:59:26;3.10;66.50
1277;DHT22;631;51.024;13.826;2023-02-28T17:01:53;3.00;68.50
1277;DHT22;631;51.024;13.826;2023-02-28T17:04:19;2.90;69.40
1277;DHT22;631;51.024;13.826;2023-02-28T17:06:45;2.80;70.90
1277;DHT22;631;51.024;13.826;2023-02-28T17:09:21;2.70;72.80
1277;DHT22;631;51.024;13.826;2023-02-28T17:11:48;2.60;77.10
1277;DHT22;631;51.024;13.826;2023-02-28T17:14:14;2.50;80.50
1277;DHT22;631;51.024;13.826;2023-02-28T17:16:41;2.30;83.20
1277;DHT22;631;51.024;13.826;2023-02-28T17:19:12;2.20;87.40
1277;DHT22;631;51.024;13.826;2023-02-28T17:21:38;2.10;90.40
1277;DHT22;631;51.024;13.826;2023-02-28T17:24:04;2.00;91.30
1277;DHT22;631;51.024;13.826;2023-02-28T17:26:30;1.90;92.20
1277;DHT22;631;51.024;13.826;2023-02-28T17:28:57;1.80;93.60
1277;DHT22;631;51.024;13.826;2023-02-28T17:31:27;1.70;94.50
1277;DHT22;631;51.024;13.826;2023-02-28T17:33:53;1.70;95.30
1277;DHT22;631;51.024;13.826;2023-02-28T17:36:22;1.60;95.40
1277;DHT22;631;51.024;13.826;2023-02-28T17:38:49;1.50;96.10
1277;DHT22;631;51.024;13.826;2023-02-28T17:41:15;1.40;97.00
1277;DHT22;631;51.024;13.826;2023-02-28T17:43:40;1.30;97.60
1277;DHT22;631;51.024;13.826;2023-02-28T17:46:14;1.30;98.80
1277;DHT22;631;51.024;13.826;2023-02-28T17:48:41;1.30;99.50
1277;DHT22;631;51.024;13.826;2023-02-28T17:51:08;1.20;99.90
1277;DHT22;631;51.024;13.826;2023-02-28T17:53:33;1.10;99.90
1277;DHT22;631;51.024;13.826;2023-02-28T17:55:59;1.00;99.90
1277;DHT22;631;51.024;13.826;2023-02-28T17:58:25;1.00;99.90
1277;DHT22;631;51.024;13.826;2023-02-28T18:00:50;0.90;99.90
1277;DHT22;631;51.024;13.826;2023-02-28T18:03:19;0.90;99.90
1277;DHT22;631;51.024;13.826;2023-02-28T18:05:46;0.80;99.90
1277;DHT22;631;51.024;13.826;2023-02-28T18:08:12;0.80;99.90
1277;DHT22;631;51.024;13.826;2023-02-28T18:10:38;0.70;99.90
1277;DHT22;631;51.024;13.826;2023-02-28T18:13:04;0.70;99.90
1277;DHT22;631;51.024;13.826;2023-02-28T18:15:30;0.60;99.90
1277;DHT22;631;51.024;13.826;2023-02-28T18:17:56;0.50;99.90
1277;DHT22;631;51.024;13.826;2023-02-28T18:20:22;0.50;99.90
1277;DHT22;631;51.024;13.826;2023-02-28T18:22:47;0.40;99.90
1277;DHT22;631;51.024;13.826;2023-02-28T18:25:13;0.40;99.90
1277;DHT22;631;51.024;13.826;2023-02-28T18:27:41;0.40;99.90
1277;DHT22;631;51.024;13.826;2023-02-28T18:30:21;0.30;99.90
1277;DHT22;631;51.024;13.826;2023-02-28T18:32:47;0.30;99.90
1277;DHT22;631;51.024;13.826;2023-02-28T18:35:13;0.30;99.90
1277;DHT22;631;51.024;13.826;2023-02-28T18:37:39;0.30;99.90
1277;DHT22;631;51.024;13.826;2023-02-28T18:40:05;0.20;99.90
1277;DHT22;631;51.024;13.826;2023-02-28T18:42:31;0.20;99.90
1277;DHT22;631;51.024;13.826;2023-02-28T18:44:56;0.20;99.90
1277;DHT22;631;51.024;13.826;2023-02-28T18:47:22;0.10;99.90
1277;DHT22;631;51.024;13.826;2023-02-28T18:49:48;0.10;99.90
1277;DHT22;631;51.024;13.826;2023-02-28T18:52:13;0.10;99.90
1277;DHT22;631;51.024;13.826;2023-02-28T18:54:39;0.00;99.90
1277;DHT22;631;51.024;13.826;2023-02-28T18:57:04;0.00;99.90
1277;DHT22;631;51.024;13.826;2023-02-28T18:59:30;-0.10;99.90
1277;DHT22;631;51.024;13.826;2023-02-28T19:01:56;-0.10;99.90
1277;DHT22;631;51.024;13.826;2023-02-28T19:04:23;-0.10;99.90